Aeroporto :
LOGIN :

Iscrizione | Disclaimer

   EN    FR    IT 

 










Sommario :    VFR   VFR Marginale   IFR   IFR Intensivo   IFR Molto Intensivo
Visibilità : 
Base nubi : 
>= 8 km
>= 3000ft
5 / 8 km
1000 / 3000 ft
1500m / 5 km
500 / 1000 ft
800 / 1500m
200 / 500 ft
< 800m
< 200 ft
Simboli :   Temporali  Nebbia  Neve Forte  Precipitazioni Forti  Vento > 20 kt
SIGMETs :   Varie  Temporali  Ghiacco  Turbolenza  Onda orograficha  Ceneri Vulcaniche






- Altitudine del aeroporto : 1197 ft
- Codice IATA : SPM


ETAD - Spangdahlem Ab

ULTIMO METAR :
  • 150456Z AUTO 00000KT 9999 CLR 13/11 A2973 RMK AO2 SLP051 T01260113 $

METARs OBSOLETI :
  • 150356Z AUTO 00000KT 9999 CLR 12/11 A2973 RMK AO2 SLP051 T01240111 $
  • 150256Z AUTO 00000KT 9999 CLR 13/11 A2975 RMK AO2 SLP055 T01280109 57012 $
  • 150156Z AUTO 07004KT 9999 CLR 13/11 A2976 RMK AO2 SLP059 T01310112 $

TAF TAF ETAD
Valido dal 15 a 04 ore il 16 a 10 ore UTC


150400Z 1504/1610 VRB02KT 8000 BR FEW015 SCT240 QNH2972INS
BECMG 1508/1509 22010G15KT 9999 NSW SCT020 BKN040 610905 QNH2971INS
TEMPO 1510/1516 23015G25KT 6000 -SHRA BKN012 OVC020
BECMG 1515/1516 25010G15KT 9000 -SHRA BKN015 OVC025 QNH2973INS
BECMG 1522/1523 25008KT 9999 NSW BKN015 QNH2986INS
BECMG 1608/1609 22013G19KT 8000 -SHRA BKN010 OVC018 610806 510003 QNH2985INS TX18/1510Z TN07/1604Z



MetMap, La meteo Aeronautica in un colpo d'occhio ! - Copyright ORBIFLY Dicembre 2007 - Disclaimer

ORBIFLY MET'MAP TEAM :

Programmazione e sviluppo : Alexandra Zaïnal
Concezione e sviluppo : Baudouin d'Aumeries
Co-Programmazione e sviluppo : Marc-Olivier Méhu
Supporto tecnico e logistico : Manuel Goepfert
Aiuto per la traduzione : Arnaldo La Scala

Contatto : metmap@orbifly.com




FONTI E CREDITI :

   NOAA